sensor_id;sensor_type;location;lat;lon;timestamp;P1;durP1;ratioP1;P2;durP2;ratioP2
22557;SDS011;11445;53.816;8.902;2022-08-19T00:01:24;5.88;;;3.95;;
22557;SDS011;11445;53.816;8.902;2022-08-19T00:03:52;7.53;;;4.47;;
22557;SDS011;11445;53.816;8.902;2022-08-19T00:06:19;10.00;;;4.70;;
22557;SDS011;11445;53.816;8.902;2022-08-19T00:08:46;6.43;;;4.18;;
22557;SDS011;11445;53.816;8.902;2022-08-19T00:11:13;5.38;;;3.13;;
22557;SDS011;11445;53.816;8.902;2022-08-19T00:13:41;5.10;;;2.72;;
22557;SDS011;11445;53.816;8.902;2022-08-19T00:16:08;3.70;;;2.13;;
22557;SDS011;11445;53.816;8.902;2022-08-19T00:18:35;2.80;;;2.40;;
22557;SDS011;11445;53.816;8.902;2022-08-19T00:21:02;2.63;;;2.20;;
22557;SDS011;11445;53.816;8.902;2022-08-19T00:23:34;4.05;;;2.60;;
22557;SDS011;11445;53.816;8.902;2022-08-19T00:26:01;9.38;;;2.58;;
22557;SDS011;11445;53.816;8.902;2022-08-19T00:28:29;6.15;;;2.50;;
22557;SDS011;11445;53.816;8.902;2022-08-19T00:30:57;4.13;;;2.55;;
22557;SDS011;11445;53.816;8.902;2022-08-19T00:33:24;9.85;;;2.85;;
22557;SDS011;11445;53.816;8.902;2022-08-19T00:35:51;3.72;;;2.50;;
22557;SDS011;11445;53.816;8.902;2022-08-19T00:38:18;4.47;;;2.70;;
22557;SDS011;11445;53.816;8.902;2022-08-19T00:40:47;3.63;;;2.22;;
22557;SDS011;11445;53.816;8.902;2022-08-19T00:43:18;3.65;;;2.55;;
22557;SDS011;11445;53.816;8.902;2022-08-19T00:45:48;6.07;;;2.63;;
22557;SDS011;11445;53.816;8.902;2022-08-19T00:48:18;3.92;;;2.60;;
22557;SDS011;11445;53.816;8.902;2022-08-19T00:50:47;3.50;;;2.50;;
22557;SDS011;11445;53.816;8.902;2022-08-19T00:53:16;7.45;;;3.00;;
22557;SDS011;11445;53.816;8.902;2022-08-19T00:55:46;4.40;;;2.60;;
22557;SDS011;11445;53.816;8.902;2022-08-19T00:58:16;3.45;;;2.47;;
22557;SDS011;11445;53.816;8.902;2022-08-19T01:00:46;3.30;;;2.80;;
22557;SDS011;11445;53.816;8.902;2022-08-19T01:03:14;8.43;;;2.65;;
22557;SDS011;11445;53.816;8.902;2022-08-19T01:05:45;7.80;;;2.78;;
22557;SDS011;11445;53.816;8.902;2022-08-19T01:08:13;4.70;;;2.20;;
22557;SDS011;11445;53.816;8.902;2022-08-19T01:10:43;5.82;;;2.42;;
22557;SDS011;11445;53.816;8.902;2022-08-19T01:13:14;7.22;;;2.78;;
22557;SDS011;11445;53.816;8.902;2022-08-19T01:15:43;4.25;;;2.35;;
22557;SDS011;11445;53.816;8.902;2022-08-19T01:18:13;4.93;;;2.60;;
22557;SDS011;11445;53.816;8.902;2022-08-19T01:20:44;5.65;;;2.75;;
22557;SDS011;11445;53.816;8.902;2022-08-19T01:23:13;3.20;;;2.30;;
22557;SDS011;11445;53.816;8.902;2022-08-19T01:25:42;4.63;;;2.72;;
22557;SDS011;11445;53.816;8.902;2022-08-19T01:28:15;3.63;;;2.38;;
22557;SDS011;11445;53.816;8.902;2022-08-19T01:30:43;5.50;;;2.60;;
22557;SDS011;11445;53.816;8.902;2022-08-19T01:33:12;6.00;;;2.50;;
22557;SDS011;11445;53.816;8.902;2022-08-19T01:35:40;6.05;;;2.70;;
22557;SDS011;11445;53.816;8.902;2022-08-19T01:38:08;4.63;;;2.65;;
22557;SDS011;11445;53.816;8.902;2022-08-19T01:40:38;3.92;;;2.45;;
22557;SDS011;11445;53.816;8.902;2022-08-19T01:43:07;5.13;;;2.13;;
22557;SDS011;11445;53.816;8.902;2022-08-19T01:45:34;7.35;;;2.60;;
22557;SDS011;11445;53.816;8.902;2022-08-19T01:48:03;3.60;;;2.42;;
22557;SDS011;11445;53.816;8.902;2022-08-19T01:50:31;5.88;;;2.40;;
22557;SDS011;11445;53.816;8.902;2022-08-19T01:52:59;6.72;;;2.13;;
22557;SDS011;11445;53.816;8.902;2022-08-19T01:55:29;6.10;;;2.42;;
22557;SDS011;11445;53.816;8.902;2022-08-19T01:57:58;4.75;;;2.88;;
22557;SDS011;11445;53.816;8.902;2022-08-19T02:00:29;5.60;;;2.38;;
22557;SDS011;11445;53.816;8.902;2022-08-19T02:02:57;4.13;;;2.30;;
22557;SDS011;11445;53.816;8.902;2022-08-19T02:05:26;6.03;;;2.50;;
22557;SDS011;11445;53.816;8.902;2022-08-19T02:07:54;5.28;;;2.78;;
22557;SDS011;11445;53.816;8.902;2022-08-19T02:10:21;5.15;;;2.40;;
22557;SDS011;11445;53.816;8.902;2022-08-19T02:12:49;6.88;;;2.50;;
22557;SDS011;11445;53.816;8.902;2022-08-19T02:15:18;3.03;;;2.22;;
22557;SDS011;11445;53.816;8.902;2022-08-19T02:17:47;5.53;;;2.47;;
22557;SDS011;11445;53.816;8.902;2022-08-19T02:20:14;7.05;;;2.53;;
22557;SDS011;11445;53.816;8.902;2022-08-19T02:22:41;4.47;;;2.70;;
22557;SDS011;11445;53.816;8.902;2022-08-19T02:25:09;4.72;;;2.40;;
22557;SDS011;11445;53.816;8.902;2022-08-19T02:27:36;3.35;;;2.65;;
22557;SDS011;11445;53.816;8.902;2022-08-19T02:30:04;3.95;;;2.60;;
22557;SDS011;11445;53.816;8.902;2022-08-19T02:32:34;4.03;;;2.60;;
22557;SDS011;11445;53.816;8.902;2022-08-19T02:35:01;4.40;;;2.55;;
22557;SDS011;11445;53.816;8.902;2022-08-19T02:37:29;3.55;;;2.60;;
22557;SDS011;11445;53.816;8.902;2022-08-19T02:40:13;4.75;;;2.38;;
22557;SDS011;11445;53.816;8.902;2022-08-19T02:42:42;5.53;;;2.75;;
22557;SDS011;11445;53.816;8.902;2022-08-19T02:45:10;5.50;;;2.70;;
22557;SDS011;11445;53.816;8.902;2022-08-19T02:47:39;4.65;;;2.40;;
22557;SDS011;11445;53.816;8.902;2022-08-19T02:50:07;3.65;;;2.60;;
22557;SDS011;11445;53.816;8.902;2022-08-19T02:52:34;3.78;;;2.47;;
22557;SDS011;11445;53.816;8.902;2022-08-19T02:55:02;2.92;;;2.20;;
22557;SDS011;11445;53.816;8.902;2022-08-19T02:57:31;9.32;;;3.05;;
22557;SDS011;11445;53.816;8.902;2022-08-19T02:59:59;4.70;;;2.90;;
22557;SDS011;11445;53.816;8.902;2022-08-19T03:02:26;7.03;;;3.20;;
22557;SDS011;11445;53.816;8.902;2022-08-19T03:04:54;8.95;;;3.33;;
22557;SDS011;11445;53.816;8.902;2022-08-19T03:07:21;6.55;;;2.90;;
22557;SDS011;11445;53.816;8.902;2022-08-19T03:09:48;7.00;;;3.40;;
22557;SDS011;11445;53.816;8.902;2022-08-19T03:12:15;5.20;;;2.72;;
22557;SDS011;11445;53.816;8.902;2022-08-19T03:14:42;4.35;;;3.00;;
22557;SDS011;11445;53.816;8.902;2022-08-19T03:17:10;4.22;;;2.78;;
22557;SDS011;11445;53.816;8.902;2022-08-19T03:19:37;3.78;;;2.95;;
22557;SDS011;11445;53.816;8.902;2022-08-19T03:22:06;7.05;;;3.17;;
22557;SDS011;11445;53.816;8.902;2022-08-19T03:24:33;3.85;;;2.97;;
22557;SDS011;11445;53.816;8.902;2022-08-19T03:27:00;4.43;;;3.22;;
22557;SDS011;11445;53.816;8.902;2022-08-19T03:29:30;6.00;;;3.10;;
22557;SDS011;11445;53.816;8.902;2022-08-19T03:31:58;5.25;;;3.25;;
22557;SDS011;11445;53.816;8.902;2022-08-19T03:34:28;4.95;;;3.58;;
22557;SDS011;11445;53.816;8.902;2022-08-19T03:36:57;6.18;;;3.70;;
22557;SDS011;11445;53.816;8.902;2022-08-19T03:39:27;5.47;;;3.28;;
22557;SDS011;11445;53.816;8.902;2022-08-19T03:41:55;5.25;;;3.53;;
22557;SDS011;11445;53.816;8.902;2022-08-19T03:44:25;6.43;;;4.15;;
22557;SDS011;11445;53.816;8.902;2022-08-19T03:46:53;5.43;;;3.70;;
22557;SDS011;11445;53.816;8.902;2022-08-19T03:49:22;7.57;;;4.10;;
22557;SDS011;11445;53.816;8.902;2022-08-19T03:51:50;9.20;;;4.25;;
22557;SDS011;11445;53.816;8.902;2022-08-19T03:54:19;5.22;;;3.95;;
22557;SDS011;11445;53.816;8.902;2022-08-19T03:56:49;5.85;;;3.80;;
22557;SDS011;11445;53.816;8.902;2022-08-19T03:59:19;4.40;;;4.00;;
22557;SDS011;11445;53.816;8.902;2022-08-19T04:01:50;7.00;;;4.15;;
22557;SDS011;11445;53.816;8.902;2022-08-19T04:04:17;5.65;;;4.05;;
22557;SDS011;11445;53.816;8.902;2022-08-19T04:06:44;4.57;;;3.85;;
22557;SDS011;11445;53.816;8.902;2022-08-19T04:09:12;8.10;;;4.00;;
22557;SDS011;11445;53.816;8.902;2022-08-19T04:11:40;6.55;;;4.03;;
22557;SDS011;11445;53.816;8.902;2022-08-19T04:14:13;8.02;;;4.22;;
22557;SDS011;11445;53.816;8.902;2022-08-19T04:16:42;5.60;;;3.95;;
22557;SDS011;11445;53.816;8.902;2022-08-19T04:19:10;5.18;;;4.00;;
22557;SDS011;11445;53.816;8.902;2022-08-19T04:21:38;5.95;;;4.32;;
22557;SDS011;11445;53.816;8.902;2022-08-19T04:24:05;5.22;;;4.20;;
22557;SDS011;11445;53.816;8.902;2022-08-19T04:26:34;8.13;;;3.85;;
22557;SDS011;11445;53.816;8.902;2022-08-19T04:29:03;6.40;;;3.92;;
22557;SDS011;11445;53.816;8.902;2022-08-19T04:31:33;7.78;;;3.63;;
22557;SDS011;11445;53.816;8.902;2022-08-19T04:34:01;6.07;;;4.45;;
22557;SDS011;11445;53.816;8.902;2022-08-19T04:36:31;5.03;;;3.60;;
22557;SDS011;11445;53.816;8.902;2022-08-19T04:39:00;5.95;;;3.75;;
22557;SDS011;11445;53.816;8.902;2022-08-19T04:41:29;4.95;;;3.20;;
22557;SDS011;11445;53.816;8.902;2022-08-19T04:44:14;5.28;;;3.60;;
22557;SDS011;11445;53.816;8.902;2022-08-19T04:46:44;5.47;;;3.20;;
22557;SDS011;11445;53.816;8.902;2022-08-19T04:49:13;4.25;;;2.65;;
22557;SDS011;11445;53.816;8.902;2022-08-19T04:51:41;3.78;;;3.30;;
22557;SDS011;11445;53.816;8.902;2022-08-19T04:54:10;7.70;;;3.63;;
22557;SDS011;11445;53.816;8.902;2022-08-19T04:56:38;4.30;;;2.90;;
22557;SDS011;11445;53.816;8.902;2022-08-19T04:59:06;4.70;;;3.20;;
22557;SDS011;11445;53.816;8.902;2022-08-19T05:01:33;5.78;;;3.00;;
22557;SDS011;11445;53.816;8.902;2022-08-19T05:04:03;5.70;;;3.50;;
22557;SDS011;11445;53.816;8.902;2022-08-19T05:06:32;3.63;;;3.00;;
22557;SDS011;11445;53.816;8.902;2022-08-19T05:09:00;4.72;;;3.10;;
22557;SDS011;11445;53.816;8.902;2022-08-19T05:11:29;3.40;;;2.60;;
22557;SDS011;11445;53.816;8.902;2022-08-19T05:13:57;5.53;;;2.90;;
22557;SDS011;11445;53.816;8.902;2022-08-19T05:16:25;2.88;;;2.53;;
22557;SDS011;11445;53.816;8.902;2022-08-19T05:18:52;11.23;;;2.90;;
22557;SDS011;11445;53.816;8.902;2022-08-19T05:21:39;7.43;;;2.95;;
22557;SDS011;11445;53.816;8.902;2022-08-19T05:24:24;5.75;;;2.83;;
22557;SDS011;11445;53.816;8.902;2022-08-19T05:26:52;3.65;;;2.60;;
22557;SDS011;11445;53.816;8.902;2022-08-19T05:29:23;5.60;;;3.10;;
22557;SDS011;11445;53.816;8.902;2022-08-19T05:31:53;5.43;;;2.97;;
22557;SDS011;11445;53.816;8.902;2022-08-19T05:34:22;7.07;;;2.85;;
22557;SDS011;11445;53.816;8.902;2022-08-19T05:36:53;7.05;;;3.03;;
22557;SDS011;11445;53.816;8.902;2022-08-19T05:39:22;3.95;;;2.88;;
22557;SDS011;11445;53.816;8.902;2022-08-19T05:41:50;7.32;;;2.92;;
22557;SDS011;11445;53.816;8.902;2022-08-19T05:44:19;3.58;;;2.92;;
22557;SDS011;11445;53.816;8.902;2022-08-19T05:46:47;4.68;;;3.80;;
22557;SDS011;11445;53.816;8.902;2022-08-19T05:49:17;4.25;;;3.20;;
22557;SDS011;11445;53.816;8.902;2022-08-19T05:51:47;7.75;;;2.95;;
22557;SDS011;11445;53.816;8.902;2022-08-19T05:54:17;4.97;;;3.63;;
22557;SDS011;11445;53.816;8.902;2022-08-19T05:56:44;4.68;;;3.22;;
22557;SDS011;11445;53.816;8.902;2022-08-19T05:59:13;8.73;;;3.55;;
22557;SDS011;11445;53.816;8.902;2022-08-19T06:01:42;4.57;;;3.20;;
22557;SDS011;11445;53.816;8.902;2022-08-19T06:04:10;6.35;;;3.25;;
22557;SDS011;11445;53.816;8.902;2022-08-19T06:06:38;5.90;;;3.50;;
22557;SDS011;11445;53.816;8.902;2022-08-19T06:09:06;5.88;;;3.90;;
22557;SDS011;11445;53.816;8.902;2022-08-19T06:11:37;7.10;;;3.72;;
22557;SDS011;11445;53.816;8.902;2022-08-19T06:14:08;5.45;;;3.10;;
22557;SDS011;11445;53.816;8.902;2022-08-19T06:16:37;4.20;;;3.50;;
22557;SDS011;11445;53.816;8.902;2022-08-19T06:19:08;6.45;;;3.65;;
22557;SDS011;11445;53.816;8.902;2022-08-19T06:21:37;9.35;;;3.65;;
22557;SDS011;11445;53.816;8.902;2022-08-19T06:24:06;4.18;;;3.78;;
22557;SDS011;11445;53.816;8.902;2022-08-19T06:26:36;4.18;;;3.70;;
22557;SDS011;11445;53.816;8.902;2022-08-19T06:29:05;5.88;;;3.90;;
22557;SDS011;11445;53.816;8.902;2022-08-19T06:31:34;4.07;;;3.67;;
22557;SDS011;11445;53.816;8.902;2022-08-19T06:34:02;4.25;;;3.75;;
22557;SDS011;11445;53.816;8.902;2022-08-19T06:36:31;4.10;;;3.60;;
22557;SDS011;11445;53.816;8.902;2022-08-19T06:39:00;6.10;;;4.60;;
22557;SDS011;11445;53.816;8.902;2022-08-19T06:41:28;5.28;;;3.70;;
22557;SDS011;11445;53.816;8.902;2022-08-19T06:43:57;6.65;;;3.70;;
22557;SDS011;11445;53.816;8.902;2022-08-19T06:46:24;5.40;;;3.53;;
22557;SDS011;11445;53.816;8.902;2022-08-19T06:48:52;7.43;;;3.45;;
22557;SDS011;11445;53.816;8.902;2022-08-19T06:51:20;5.07;;;3.88;;
22557;SDS011;11445;53.816;8.902;2022-08-19T06:53:49;6.65;;;4.28;;
22557;SDS011;11445;53.816;8.902;2022-08-19T06:56:19;6.38;;;4.13;;
22557;SDS011;11445;53.816;8.902;2022-08-19T06:58:48;5.07;;;4.57;;
22557;SDS011;11445;53.816;8.902;2022-08-19T07:01:18;6.85;;;3.75;;
22557;SDS011;11445;53.816;8.902;2022-08-19T07:03:46;7.30;;;4.20;;
22557;SDS011;11445;53.816;8.902;2022-08-19T07:06:14;4.68;;;4.28;;
22557;SDS011;11445;53.816;8.902;2022-08-19T07:08:43;8.68;;;4.50;;
22557;SDS011;11445;53.816;8.902;2022-08-19T07:11:12;7.60;;;4.78;;
22557;SDS011;11445;53.816;8.902;2022-08-19T07:13:42;5.30;;;4.38;;
22557;SDS011;11445;53.816;8.902;2022-08-19T07:16:11;4.10;;;3.70;;
22557;SDS011;11445;53.816;8.902;2022-08-19T07:18:42;5.15;;;3.80;;
22557;SDS011;11445;53.816;8.902;2022-08-19T07:21:10;5.25;;;4.07;;
22557;SDS011;11445;53.816;8.902;2022-08-19T07:23:38;5.43;;;3.90;;
22557;SDS011;11445;53.816;8.902;2022-08-19T07:26:06;3.83;;;3.20;;
22557;SDS011;11445;53.816;8.902;2022-08-19T07:28:34;9.65;;;3.92;;
22557;SDS011;11445;53.816;8.902;2022-08-19T07:31:04;7.63;;;3.60;;
22557;SDS011;11445;53.816;8.902;2022-08-19T07:33:32;9.40;;;3.60;;
22557;SDS011;11445;53.816;8.902;2022-08-19T07:36:03;12.02;;;3.80;;
22557;SDS011;11445;53.816;8.902;2022-08-19T07:38:32;7.75;;;3.22;;
22557;SDS011;11445;53.816;8.902;2022-08-19T07:41:00;3.88;;;2.80;;
22557;SDS011;11445;53.816;8.902;2022-08-19T07:43:27;4.68;;;2.90;;
22557;SDS011;11445;53.816;8.902;2022-08-19T07:45:54;5.97;;;3.10;;
22557;SDS011;11445;53.816;8.902;2022-08-19T07:48:22;3.35;;;3.08;;
22557;SDS011;11445;53.816;8.902;2022-08-19T07:50:50;4.55;;;2.80;;
22557;SDS011;11445;53.816;8.902;2022-08-19T07:53:19;10.63;;;2.90;;
22557;SDS011;11445;53.816;8.902;2022-08-19T07:55:46;3.58;;;3.03;;
22557;SDS011;11445;53.816;8.902;2022-08-19T07:58:15;6.40;;;2.88;;
22557;SDS011;11445;53.816;8.902;2022-08-19T08:00:44;4.28;;;2.55;;
22557;SDS011;11445;53.816;8.902;2022-08-19T08:03:13;2.47;;;2.28;;
22557;SDS011;11445;53.816;8.902;2022-08-19T08:05:41;3.42;;;2.40;;
22557;SDS011;11445;53.816;8.902;2022-08-19T08:08:27;5.30;;;2.10;;
22557;SDS011;11445;53.816;8.902;2022-08-19T08:11:11;6.07;;;2.35;;
22557;SDS011;11445;53.816;8.902;2022-08-19T08:13:39;3.97;;;2.03;;
22557;SDS011;11445;53.816;8.902;2022-08-19T08:16:06;5.90;;;2.17;;
22557;SDS011;11445;53.816;8.902;2022-08-19T08:18:34;2.92;;;2.00;;
22557;SDS011;11445;53.816;8.902;2022-08-19T08:21:06;3.20;;;2.05;;
22557;SDS011;11445;53.816;8.902;2022-08-19T08:23:35;5.25;;;2.13;;
22557;SDS011;11445;53.816;8.902;2022-08-19T08:26:02;2.80;;;2.30;;
22557;SDS011;11445;53.816;8.902;2022-08-19T08:28:29;3.40;;;2.10;;
22557;SDS011;11445;53.816;8.902;2022-08-19T08:30:57;2.28;;;2.10;;
22557;SDS011;11445;53.816;8.902;2022-08-19T08:33:26;3.33;;;2.03;;
22557;SDS011;11445;53.816;8.902;2022-08-19T08:35:55;4.97;;;2.22;;
22557;SDS011;11445;53.816;8.902;2022-08-19T08:38:22;3.45;;;2.08;;
22557;SDS011;11445;53.816;8.902;2022-08-19T08:40:52;3.88;;;1.60;;
22557;SDS011;11445;53.816;8.902;2022-08-19T08:43:32;5.07;;;1.95;;
22557;SDS011;11445;53.816;8.902;2022-08-19T08:46:01;3.05;;;1.90;;
22557;SDS011;11445;53.816;8.902;2022-08-19T08:48:33;7.20;;;2.13;;
22557;SDS011;11445;53.816;8.902;2022-08-19T08:51:04;6.25;;;1.60;;
22557;SDS011;11445;53.816;8.902;2022-08-19T08:53:35;2.03;;;1.83;;
22557;SDS011;11445;53.816;8.902;2022-08-19T08:56:05;3.75;;;2.10;;
22557;SDS011;11445;53.816;8.902;2022-08-19T08:58:41;5.65;;;2.50;;
22557;SDS011;11445;53.816;8.902;2022-08-19T09:01:14;2.15;;;1.98;;
22557;SDS011;11445;53.816;8.902;2022-08-19T09:03:42;1.50;;;1.40;;
22557;SDS011;11445;53.816;8.902;2022-08-19T09:06:17;3.95;;;1.35;;
22557;SDS011;11445;53.816;8.902;2022-08-19T09:08:55;2.83;;;1.70;;
22557;SDS011;11445;53.816;8.902;2022-08-19T09:11:33;2.13;;;1.70;;
22557;SDS011;11445;53.816;8.902;2022-08-19T09:14:09;3.10;;;2.05;;
22557;SDS011;11445;53.816;8.902;2022-08-19T09:16:40;2.38;;;1.73;;
22557;SDS011;11445;53.816;8.902;2022-08-19T09:19:08;3.10;;;1.65;;
22557;SDS011;11445;53.816;8.902;2022-08-19T09:21:36;5.70;;;1.70;;
22557;SDS011;11445;53.816;8.902;2022-08-19T09:24:03;4.88;;;1.85;;
22557;SDS011;11445;53.816;8.902;2022-08-19T09:26:32;2.67;;;2.20;;
22557;SDS011;11445;53.816;8.902;2022-08-19T09:29:00;2.25;;;2.00;;
22557;SDS011;11445;53.816;8.902;2022-08-19T09:31:30;11.48;;;2.30;;
22557;SDS011;11445;53.816;8.902;2022-08-19T09:33:58;3.55;;;1.88;;
22557;SDS011;11445;53.816;8.902;2022-08-19T09:36:28;6.20;;;2.20;;
22557;SDS011;11445;53.816;8.902;2022-08-19T09:38:58;5.53;;;1.60;;
22557;SDS011;11445;53.816;8.902;2022-08-19T09:41:26;2.65;;;1.80;;
22557;SDS011;11445;53.816;8.902;2022-08-19T09:43:55;3.80;;;1.80;;
22557;SDS011;11445;53.816;8.902;2022-08-19T09:46:24;2.45;;;1.90;;
22557;SDS011;11445;53.816;8.902;2022-08-19T09:48:59;3.58;;;2.10;;
22557;SDS011;11445;53.816;8.902;2022-08-19T09:51:26;6.25;;;2.22;;
22557;SDS011;11445;53.816;8.902;2022-08-19T09:53:54;3.22;;;2.00;;
22557;SDS011;11445;53.816;8.902;2022-08-19T09:56:26;6.10;;;2.25;;
22557;SDS011;11445;53.816;8.902;2022-08-19T09:58:54;6.22;;;2.83;;
22557;SDS011;11445;53.816;8.902;2022-08-19T10:01:24;3.60;;;2.10;;
22557;SDS011;11445;53.816;8.902;2022-08-19T10:03:53;4.70;;;1.88;;
22557;SDS011;11445;53.816;8.902;2022-08-19T10:06:22;2.85;;;2.00;;
22557;SDS011;11445;53.816;8.902;2022-08-19T10:08:51;4.22;;;1.73;;
22557;SDS011;11445;53.816;8.902;2022-08-19T10:11:18;3.42;;;1.98;;
22557;SDS011;11445;53.816;8.902;2022-08-19T10:13:46;5.18;;;2.17;;
22557;SDS011;11445;53.816;8.902;2022-08-19T10:16:17;3.13;;;2.63;;
22557;SDS011;11445;53.816;8.902;2022-08-19T10:18:47;3.43;;;2.50;;
22557;SDS011;11445;53.816;8.902;2022-08-19T10:21:16;3.67;;;2.13;;
22557;SDS011;11445;53.816;8.902;2022-08-19T10:23:46;2.75;;;2.55;;
22557;SDS011;11445;53.816;8.902;2022-08-19T10:26:16;3.33;;;2.50;;
22557;SDS011;11445;53.816;8.902;2022-08-19T10:28:45;4.45;;;2.50;;
22557;SDS011;11445;53.816;8.902;2022-08-19T10:31:13;7.97;;;2.75;;
22557;SDS011;11445;53.816;8.902;2022-08-19T10:33:44;2.70;;;2.40;;
22557;SDS011;11445;53.816;8.902;2022-08-19T10:36:13;4.03;;;2.90;;
22557;SDS011;11445;53.816;8.902;2022-08-19T10:38:42;6.72;;;3.10;;
22557;SDS011;11445;53.816;8.902;2022-08-19T10:41:10;6.20;;;3.40;;
22557;SDS011;11445;53.816;8.902;2022-08-19T10:43:39;4.95;;;2.85;;
22557;SDS011;11445;53.816;8.902;2022-08-19T10:46:06;5.78;;;4.07;;
22557;SDS011;11445;53.816;8.902;2022-08-19T10:48:36;4.40;;;3.72;;
22557;SDS011;11445;53.816;8.902;2022-08-19T10:51:03;4.80;;;4.00;;
22557;SDS011;11445;53.816;8.902;2022-08-19T10:53:49;5.20;;;3.75;;
22557;SDS011;11445;53.816;8.902;2022-08-19T10:56:16;7.65;;;3.45;;
22557;SDS011;11445;53.816;8.902;2022-08-19T10:59:01;4.70;;;3.83;;
22557;SDS011;11445;53.816;8.902;2022-08-19T11:01:28;3.90;;;3.30;;
22557;SDS011;11445;53.816;8.902;2022-08-19T11:03:59;5.45;;;3.80;;
22557;SDS011;11445;53.816;8.902;2022-08-19T11:06:27;4.47;;;3.47;;
22557;SDS011;11445;53.816;8.902;2022-08-19T11:08:55;5.45;;;4.07;;
22557;SDS011;11445;53.816;8.902;2022-08-19T11:11:22;3.85;;;3.55;;
22557;SDS011;11445;53.816;8.902;2022-08-19T11:13:49;3.92;;;3.53;;
22557;SDS011;11445;53.816;8.902;2022-08-19T11:16:18;4.00;;;3.58;;
22557;SDS011;11445;53.816;8.902;2022-08-19T11:18:47;6.70;;;4.63;;
22557;SDS011;11445;53.816;8.902;2022-08-19T11:21:19;5.60;;;4.13;;
22557;SDS011;11445;53.816;8.902;2022-08-19T11:23:48;4.63;;;4.10;;
22557;SDS011;11445;53.816;8.902;2022-08-19T11:26:17;4.45;;;4.05;;
22557;SDS011;11445;53.816;8.902;2022-08-19T11:28:45;8.02;;;3.90;;
22557;SDS011;11445;53.816;8.902;2022-08-19T11:31:12;4.80;;;4.22;;
22557;SDS011;11445;53.816;8.902;2022-08-19T11:33:41;5.35;;;4.10;;
22557;SDS011;11445;53.816;8.902;2022-08-19T11:36:09;4.90;;;3.83;;
22557;SDS011;11445;53.816;8.902;2022-08-19T11:38:37;4.82;;;3.58;;
22557;SDS011;11445;53.816;8.902;2022-08-19T11:41:06;5.55;;;4.53;;
22557;SDS011;11445;53.816;8.902;2022-08-19T11:43:33;7.03;;;4.50;;
22557;SDS011;11445;53.816;8.902;2022-08-19T11:46:03;4.93;;;4.35;;
22557;SDS011;11445;53.816;8.902;2022-08-19T11:48:32;4.10;;;3.80;;
22557;SDS011;11445;53.816;8.902;2022-08-19T11:51:02;4.55;;;4.13;;
22557;SDS011;11445;53.816;8.902;2022-08-19T11:53:31;4.45;;;4.05;;
22557;SDS011;11445;53.816;8.902;2022-08-19T11:56:00;3.75;;;3.38;;
22557;SDS011;11445;53.816;8.902;2022-08-19T11:58:28;5.10;;;4.13;;
22557;SDS011;11445;53.816;8.902;2022-08-19T12:00:55;5.40;;;3.70;;
22557;SDS011;11445;53.816;8.902;2022-08-19T12:03:23;5.45;;;4.60;;
22557;SDS011;11445;53.816;8.902;2022-08-19T12:05:50;4.20;;;3.80;;
22557;SDS011;11445;53.816;8.902;2022-08-19T12:08:19;4.43;;;3.80;;
22557;SDS011;11445;53.816;8.902;2022-08-19T12:10:46;5.55;;;4.32;;
22557;SDS011;11445;53.816;8.902;2022-08-19T12:13:15;5.20;;;4.70;;
22557;SDS011;11445;53.816;8.902;2022-08-19T12:15:44;5.18;;;4.22;;
22557;SDS011;11445;53.816;8.902;2022-08-19T12:18:13;6.65;;;4.03;;
22557;SDS011;11445;53.816;8.902;2022-08-19T12:20:40;4.10;;;3.80;;
22557;SDS011;11445;53.816;8.902;2022-08-19T12:23:08;6.38;;;4.15;;
22557;SDS011;11445;53.816;8.902;2022-08-19T12:25:36;4.88;;;4.38;;
22557;SDS011;11445;53.816;8.902;2022-08-19T12:28:03;6.35;;;4.35;;
22557;SDS011;11445;53.816;8.902;2022-08-19T12:30:32;7.05;;;4.78;;
22557;SDS011;11445;53.816;8.902;2022-08-19T12:32:59;6.07;;;4.35;;
22557;SDS011;11445;53.816;8.902;2022-08-19T12:35:26;3.90;;;3.53;;
22557;SDS011;11445;53.816;8.902;2022-08-19T12:37:53;8.93;;;3.90;;
22557;SDS011;11445;53.816;8.902;2022-08-19T12:40:20;5.63;;;4.25;;
22557;SDS011;11445;53.816;8.902;2022-08-19T12:42:47;5.15;;;4.13;;
22557;SDS011;11445;53.816;8.902;2022-08-19T12:45:16;3.88;;;3.58;;
22557;SDS011;11445;53.816;8.902;2022-08-19T12:47:45;4.05;;;3.60;;
22557;SDS011;11445;53.816;8.902;2022-08-19T12:50:12;7.03;;;3.90;;
22557;SDS011;11445;53.816;8.902;2022-08-19T12:52:39;3.67;;;3.13;;
22557;SDS011;11445;53.816;8.902;2022-08-19T12:55:07;4.35;;;3.47;;
22557;SDS011;11445;53.816;8.902;2022-08-19T12:57:35;3.85;;;3.40;;
22557;SDS011;11445;53.816;8.902;2022-08-19T13:00:04;3.67;;;3.38;;
22557;SDS011;11445;53.816;8.902;2022-08-19T13:02:36;3.88;;;3.42;;
22557;SDS011;11445;53.816;8.902;2022-08-19T13:05:06;4.20;;;3.35;;
22557;SDS011;11445;53.816;8.902;2022-08-19T13:07:36;4.40;;;4.07;;
22557;SDS011;11445;53.816;8.902;2022-08-19T13:10:04;4.18;;;3.72;;
22557;SDS011;11445;53.816;8.902;2022-08-19T13:12:32;4.05;;;3.45;;
22557;SDS011;11445;53.816;8.902;2022-08-19T13:14:59;3.85;;;3.45;;
22557;SDS011;11445;53.816;8.902;2022-08-19T13:17:26;4.38;;;3.83;;
22557;SDS011;11445;53.816;8.902;2022-08-19T13:19:53;6.68;;;3.60;;
22557;SDS011;11445;53.816;8.902;2022-08-19T13:22:22;5.43;;;3.45;;
22557;SDS011;11445;53.816;8.902;2022-08-19T13:24:50;4.30;;;3.28;;
22557;SDS011;11445;53.816;8.902;2022-08-19T13:27:17;3.85;;;3.42;;
22557;SDS011;11445;53.816;8.902;2022-08-19T13:29:44;8.90;;;3.90;;
22557;SDS011;11445;53.816;8.902;2022-08-19T13:32:29;5.80;;;3.53;;
22557;SDS011;11445;53.816;8.902;2022-08-19T13:35:14;5.07;;;4.15;;
22557;SDS011;11445;53.816;8.902;2022-08-19T13:37:43;4.85;;;3.92;;
22557;SDS011;11445;53.816;8.902;2022-08-19T13:40:11;4.85;;;3.72;;
22557;SDS011;11445;53.816;8.902;2022-08-19T13:42:41;5.80;;;3.80;;
22557;SDS011;11445;53.816;8.902;2022-08-19T13:45:10;4.25;;;3.55;;
22557;SDS011;11445;53.816;8.902;2022-08-19T13:47:39;6.30;;;3.38;;
22557;SDS011;11445;53.816;8.902;2022-08-19T13:50:08;3.80;;;3.50;;
22557;SDS011;11445;53.816;8.902;2022-08-19T13:52:35;4.10;;;3.30;;
22557;SDS011;11445;53.816;8.902;2022-08-19T13:55:05;5.97;;;3.50;;
22557;SDS011;11445;53.816;8.902;2022-08-19T13:57:33;4.85;;;3.85;;
22557;SDS011;11445;53.816;8.902;2022-08-19T14:00:00;4.05;;;3.75;;
22557;SDS011;11445;53.816;8.902;2022-08-19T14:02:28;4.30;;;3.20;;
22557;SDS011;11445;53.816;8.902;2022-08-19T14:04:55;6.10;;;3.80;;
22557;SDS011;11445;53.816;8.902;2022-08-19T14:07:22;3.70;;;3.20;;
22557;SDS011;11445;53.816;8.902;2022-08-19T14:09:49;3.88;;;3.05;;
22557;SDS011;11445;53.816;8.902;2022-08-19T14:12:19;3.17;;;2.70;;
22557;SDS011;11445;53.816;8.902;2022-08-19T14:14:47;2.10;;;1.80;;
22557;SDS011;11445;53.816;8.902;2022-08-19T14:17:14;3.63;;;1.60;;
22557;SDS011;11445;53.816;8.902;2022-08-19T14:19:41;1.98;;;1.70;;
22557;SDS011;11445;53.816;8.902;2022-08-19T14:22:09;1.38;;;1.27;;
22557;SDS011;11445;53.816;8.902;2022-08-19T14:24:36;2.33;;;1.10;;
22557;SDS011;11445;53.816;8.902;2022-08-19T14:27:04;2.15;;;1.13;;
22557;SDS011;11445;53.816;8.902;2022-08-19T14:29:33;2.83;;;1.33;;
22557;SDS011;11445;53.816;8.902;2022-08-19T14:32:00;1.10;;;1.00;;
22557;SDS011;11445;53.816;8.902;2022-08-19T14:34:27;2.65;;;1.10;;
22557;SDS011;11445;53.816;8.902;2022-08-19T14:36:56;1.42;;;1.05;;
22557;SDS011;11445;53.816;8.902;2022-08-19T14:39:23;1.92;;;1.05;;
22557;SDS011;11445;53.816;8.902;2022-08-19T14:41:50;2.28;;;0.90;;
22557;SDS011;11445;53.816;8.902;2022-08-19T14:44:18;2.67;;;1.23;;
22557;SDS011;11445;53.816;8.902;2022-08-19T14:46:46;3.33;;;1.05;;
22557;SDS011;11445;53.816;8.902;2022-08-19T14:49:13;2.65;;;1.13;;
22557;SDS011;11445;53.816;8.902;2022-08-19T14:51:40;2.15;;;0.90;;
22557;SDS011;11445;53.816;8.902;2022-08-19T14:54:07;1.80;;;1.20;;
22557;SDS011;11445;53.816;8.902;2022-08-19T14:56:34;2.10;;;1.20;;
22557;SDS011;11445;53.816;8.902;2022-08-19T14:59:01;2.78;;;1.20;;